Time;durP1;ratioP1;P1;durP2;ratioP2;P2;SDS_P1;SDS_P2;PMS_P1;PMS_P2;Temp;Humidity;BMP_temperature;BMP_pressure;BME280_temperature;BME280_humidity;BME280_pressure;Samples;Min_cycle;Max_cycle;Signal;HPM_P1;HPM_P2
2023/11/25 00:00:45;;;;;;;0.55;0.43;;;20.90;53.50;;;;;;5037475;28;20040;-67
2023/11/25 00:03:10;;;;;;;0.70;0.47;;;20.90;53.50;;;;;;5035543;28;20037;-67
2023/11/25 00:05:36;;;;;;;0.55;0.50;;;20.90;53.60;;;;;;5036814;28;20471;-67
2023/11/25 00:08:02;;;;;;;0.40;0.40;;;20.90;53.60;;;;;;5039068;28;20029;-67
2023/11/25 00:10:27;;;;;;;1.25;0.50;;;20.90;53.60;;;;;;5037220;28;20043;-68
2023/11/25 00:12:53;;;;;;;0.90;0.55;;;20.90;53.60;;;;;;5038580;28;20026;-68
2023/11/25 00:15:19;;;;;;;1.08;0.50;;;20.80;53.60;;;;;;5039441;28;20032;-67
2023/11/25 00:17:45;;;;;;;0.57;0.47;;;20.80;53.60;;;;;;5037637;28;20033;-68
2023/11/25 00:20:11;;;;;;;0.80;0.60;;;20.80;53.70;;;;;;5035974;28;20384;-67
2023/11/25 00:22:37;;;;;;;1.15;0.70;;;20.80;53.70;;;;;;5039433;28;20096;-67
2023/11/25 00:25:03;;;;;;;0.68;0.50;;;20.80;53.70;;;;;;5038177;28;20171;-67
2023/11/25 00:27:29;;;;;;;0.88;0.40;;;20.70;53.60;;;;;;5037118;28;20117;-67
2023/11/25 00:29:55;;;;;;;0.88;0.60;;;20.70;53.60;;;;;;5023605;28;20480;-68
2023/11/25 00:32:21;;;;;;;0.60;0.50;;;20.70;53.60;;;;;;5036752;28;20069;-68
2023/11/25 00:34:46;;;;;;;0.77;0.50;;;20.70;53.70;;;;;;5038926;28;20025;-68
2023/11/25 00:37:12;;;;;;;0.88;0.57;;;20.70;53.70;;;;;;5037646;28;20396;-68
2023/11/25 00:39:38;;;;;;;0.70;0.50;;;20.70;53.70;;;;;;5039895;28;20045;-68
2023/11/25 00:42:04;;;;;;;0.93;0.50;;;20.70;53.70;;;;;;5039473;28;20025;-68
2023/11/25 00:44:30;;;;;;;0.70;0.50;;;20.60;53.70;;;;;;5039748;28;20033;-68
2023/11/25 00:46:55;;;;;;;0.73;0.50;;;20.60;53.70;;;;;;5035841;28;20029;-68
2023/11/25 00:49:21;;;;;;;0.90;0.50;;;20.60;53.70;;;;;;5038634;28;20033;-68
2023/11/25 00:51:47;;;;;;;0.68;0.50;;;20.60;53.70;;;;;;5020722;28;20074;-68
2023/11/25 00:54:12;;;;;;;0.65;0.50;;;20.60;53.80;;;;;;5038802;28;20022;-68
2023/11/25 00:56:38;;;;;;;0.77;0.50;;;20.60;53.80;;;;;;5036155;28;20041;-68
2023/11/25 00:59:04;;;;;;;0.77;0.57;;;20.60;53.80;;;;;;5038555;28;20112;-70
2023/11/25 01:01:30;;;;;;;1.10;0.50;;;20.50;53.80;;;;;;5037864;28;20021;-70
2023/11/25 01:03:56;;;;;;;0.63;0.47;;;20.50;53.80;;;;;;5041873;28;20025;-70
2023/11/25 01:06:21;;;;;;;0.90;0.57;;;20.50;53.80;;;;;;5037587;28;20224;-70
2023/11/25 01:08:47;;;;;;;1.20;0.63;;;20.50;53.90;;;;;;5039707;28;20075;-70
2023/11/25 01:11:15;;;;;;;0.95;0.50;;;20.50;53.80;;;;;;5035969;28;20056;-70
2023/11/25 01:13:41;;;;;;;0.70;0.52;;;20.50;53.90;;;;;;5037007;28;20442;-70
2023/11/25 01:16:15;;;;;;;0.50;0.40;;;20.50;54.40;;;;;;5038646;28;20145;-70
2023/11/25 01:18:41;;;;;;;0.82;0.50;;;20.50;53.90;;;;;;5037444;28;20466;-70
2023/11/25 01:21:07;;;;;;;0.50;0.50;;;20.50;53.90;;;;;;5037174;28;20080;-70
2023/11/25 01:23:32;;;;;;;0.82;0.50;;;20.40;53.80;;;;;;5020650;28;20112;-70
2023/11/25 01:25:58;;;;;;;1.10;0.50;;;20.40;53.80;;;;;;5036080;28;20038;-70
2023/11/25 01:28:23;;;;;;;1.20;0.50;;;20.40;53.90;;;;;;5038629;28;20130;-70
2023/11/25 01:30:49;;;;;;;1.25;0.38;;;20.40;53.90;;;;;;5036131;28;20021;-70
2023/11/25 01:33:15;;;;;;;0.45;0.40;;;20.40;53.90;;;;;;5037044;28;20131;-70
2023/11/25 01:35:41;;;;;;;0.63;0.50;;;20.40;53.90;;;;;;5037699;28;20680;-70
2023/11/25 01:38:08;;;;;;;0.90;0.50;;;20.40;53.90;;;;;;5038804;28;20109;-70
2023/11/25 01:40:35;;;;;;;0.45;0.45;;;20.30;53.90;;;;;;5038503;28;20021;-68
2023/11/25 01:43:00;;;;;;;0.40;0.40;;;20.40;54.00;;;;;;5017814;28;20037;-68
2023/11/25 01:45:26;;;;;;;0.35;0.35;;;20.30;53.90;;;;;;5021072;28;20025;-68
2023/11/25 01:47:54;;;;;;;0.70;0.50;;;20.30;53.90;;;;;;5035392;28;20112;-68
2023/11/25 01:50:20;;;;;;;0.55;0.50;;;20.30;54.00;;;;;;5037708;28;20029;-68
2023/11/25 01:52:48;;;;;;;0.40;0.40;;;20.30;54.00;;;;;;5038468;28;20115;-68
2023/11/25 01:55:15;;;;;;;0.40;0.40;;;20.30;54.00;;;;;;5036049;28;20494;-68
2023/11/25 01:57:42;;;;;;;0.55;0.50;;;20.30;54.00;;;;;;5034827;28;20085;-69
2023/11/25 02:00:09;;;;;;;0.50;0.40;;;20.30;54.00;;;;;;5037408;28;20021;-68
2023/11/25 02:02:35;;;;;;;1.05;0.60;;;20.30;54.00;;;;;;5037572;28;20170;-69
2023/11/25 02:05:04;;;;;;;0.40;0.40;;;20.30;54.10;;;;;;5037137;28;20432;-68
2023/11/25 02:07:30;;;;;;;0.52;0.50;;;20.30;54.10;;;;;;5029935;27;20033;-69
2023/11/25 02:09:55;;;;;;;0.40;0.40;;;20.30;54.10;;;;;;5035382;28;20022;-70
2023/11/25 02:12:21;;;;;;;0.63;0.45;;;20.20;54.00;;;;;;5020388;28;20036;-70
2023/11/25 02:14:47;;;;;;;0.47;0.40;;;20.20;54.00;;;;;;5037077;28;20021;-70
2023/11/25 02:17:14;;;;;;;0.50;0.50;;;20.20;54.00;;;;;;5036281;28;20074;-70
2023/11/25 02:19:43;;;;;;;0.52;0.38;;;20.20;54.00;;;;;;5038178;28;20400;-70
2023/11/25 02:22:10;;;;;;;0.50;0.50;;;20.20;54.10;;;;;;5036806;28;20034;-70
2023/11/25 02:24:38;;;;;;;0.60;0.43;;;20.20;54.10;;;;;;5037112;28;20396;-70
2023/11/25 02:27:05;;;;;;;0.63;0.40;;;20.20;54.10;;;;;;5033792;28;20037;-70
2023/11/25 02:29:32;;;;;;;0.60;0.40;;;20.20;54.10;;;;;;5035871;28;20936;-70
2023/11/25 02:32:03;;;;;;;0.30;0.30;;;20.20;54.10;;;;;;5037213;28;20096;-70
2023/11/25 02:34:29;;;;;;;0.60;0.60;;;20.10;54.10;;;;;;5038114;28;20021;-70
2023/11/25 02:36:57;;;;;;;0.50;0.50;;;20.10;54.10;;;;;;5034395;28;20029;-70
2023/11/25 02:39:23;;;;;;;0.40;0.40;;;20.10;54.10;;;;;;5036447;28;20018;-70
2023/11/25 02:41:50;;;;;;;0.57;0.40;;;20.10;54.60;;;;;;5035561;28;20037;-70
2023/11/25 02:44:17;;;;;;;0.77;0.40;;;20.10;54.10;;;;;;5036419;28;20879;-70
2023/11/25 02:46:48;;;;;;;1.08;0.40;;;20.10;54.10;;;;;;5034244;28;20472;-70
2023/11/25 02:49:14;;;;;;;0.50;0.30;;;20.10;54.10;;;;;;5036044;28;20568;-67
2023/11/25 02:51:47;;;;;;;1.45;0.47;;;20.10;54.10;;;;;;5039617;28;20028;-67
2023/11/25 02:54:13;;;;;;;0.40;0.40;;;20.10;54.10;;;;;;5036363;28;20025;-67
2023/11/25 02:56:38;;;;;;;0.40;0.40;;;20.10;54.20;;;;;;5035478;28;20028;-67
2023/11/25 02:59:04;;;;;;;0.65;0.50;;;20.00;54.10;;;;;;5020858;28;20062;-67
2023/11/25 03:01:30;;;;;;;0.52;0.40;;;20.00;54.20;;;;;;5035343;28;20029;-67
2023/11/25 03:04:01;;;;;;;0.70;0.60;;;20.00;54.20;;;;;;5036899;28;20585;-67
2023/11/25 03:06:27;;;;;;;0.47;0.38;;;20.00;54.20;;;;;;5035733;28;20097;-68
2023/11/25 03:08:53;;;;;;;0.45;0.40;;;20.00;54.20;;;;;;5018818;28;20033;-67
2023/11/25 03:11:21;;;;;;;0.20;0.20;;;20.00;54.20;;;;;;5034479;28;20029;-67
2023/11/25 03:13:47;;;;;;;0.30;0.30;;;20.00;54.20;;;;;;5037092;28;20029;-67
2023/11/25 03:16:13;;;;;;;0.82;0.55;;;20.00;54.20;;;;;;5035184;28;20021;-67
2023/11/25 03:18:39;;;;;;;0.40;0.40;;;20.00;54.20;;;;;;5034584;28;20036;-67
2023/11/25 03:21:09;;;;;;;0.40;0.40;;;20.00;54.20;;;;;;5034191;28;20033;-70
2023/11/25 03:23:38;;;;;;;0.40;0.40;;;19.90;54.20;;;;;;5019036;28;20035;-70
2023/11/25 03:26:11;;;;;;;0.60;0.50;;;19.90;54.20;;;;;;5037514;28;20032;-71
2023/11/25 03:28:37;;;;;;;0.45;0.40;;;19.90;54.20;;;;;;5015880;28;20033;-71
2023/11/25 03:31:04;;;;;;;0.50;0.30;;;19.90;54.20;;;;;;5035494;28;20393;-70
2023/11/25 03:33:31;;;;;;;0.40;0.40;;;19.90;54.20;;;;;;5036311;28;20064;-71
2023/11/25 03:35:56;;;;;;;0.28;0.28;;;19.90;54.30;;;;;;5036496;28;20098;-71
2023/11/25 03:38:25;;;;;;;0.40;0.40;;;19.90;54.30;;;;;;5033987;28;20379;-71
2023/11/25 03:40:52;;;;;;;0.30;0.30;;;19.90;54.30;;;;;;5017931;28;20033;-71
2023/11/25 03:43:21;;;;;;;0.63;0.45;;;19.90;54.30;;;;;;5035254;28;20032;-71
2023/11/25 03:45:48;;;;;;;0.40;0.40;;;19.80;54.20;;;;;;5035361;28;20162;-71
2023/11/25 03:48:14;;;;;;;0.32;0.32;;;19.90;54.30;;;;;;5034742;28;20557;-71
2023/11/25 03:50:39;;;;;;;0.55;0.40;;;19.90;54.30;;;;;;5035861;28;20017;-71
2023/11/25 03:53:05;;;;;;;0.38;0.38;;;19.80;54.30;;;;;;5037233;28;20036;-71
2023/11/25 03:55:32;;;;;;;0.40;0.40;;;19.80;54.30;;;;;;5017977;28;20577;-71
2023/11/25 03:57:59;;;;;;;0.90;0.40;;;19.80;54.30;;;;;;5035385;28;20029;-71
2023/11/25 04:00:25;;;;;;;0.32;0.30;;;19.80;54.30;;;;;;5018767;28;20036;-71
2023/11/25 04:02:51;;;;;;;0.30;0.30;;;19.80;54.80;;;;;;5020532;28;20451;-71
2023/11/25 04:05:17;;;;;;;0.40;0.40;;;19.80;54.30;;;;;;5038042;28;20449;-71
2023/11/25 04:07:43;;;;;;;0.50;0.40;;;19.80;54.40;;;;;;5035947;28;20081;-71
2023/11/25 04:10:14;;;;;;;0.40;0.40;;;19.80;54.40;;;;;;5035895;28;20473;-71
2023/11/25 04:12:43;;;;;;;0.52;0.45;;;19.80;54.40;;;;;;5033555;28;20013;-71
2023/11/25 04:15:10;;;;;;;0.73;0.50;;;19.80;54.40;;;;;;5019388;28;20025;-71
2023/11/25 04:17:37;;;;;;;0.47;0.40;;;19.70;54.30;;;;;;5034163;28;20066;-71
2023/11/25 04:20:12;;;;;;;0.30;0.30;;;19.70;54.40;;;;;;5035151;28;20029;-71
2023/11/25 04:22:42;;;;;;;0.40;0.40;;;19.80;54.50;;;;;;5036875;28;20567;-71
2023/11/25 04:25:08;;;;;;;0.47;0.30;;;19.70;54.40;;;;;;5036034;28;20086;-71
2023/11/25 04:27:34;;;;;;;0.30;0.30;;;19.80;54.50;;;;;;5035504;28;20112;-71
2023/11/25 04:29:59;;;;;;;0.50;0.50;;;19.70;54.40;;;;;;5034331;28;20081;-68
2023/11/25 04:32:25;;;;;;;0.30;0.30;;;19.70;54.40;;;;;;5033916;28;20078;-68
2023/11/25 04:34:50;;;;;;;0.30;0.30;;;19.70;54.40;;;;;;5035402;28;20101;-69
2023/11/25 04:37:19;;;;;;;0.40;0.40;;;19.70;54.40;;;;;;5035973;28;20468;-69
2023/11/25 04:39:45;;;;;;;0.30;0.30;;;19.70;54.50;;;;;;5024923;28;20029;-69
2023/11/25 04:42:10;;;;;;;0.40;0.40;;;19.70;54.50;;;;;;5014747;28;20500;-69
2023/11/25 04:44:36;;;;;;;0.43;0.30;;;19.70;54.50;;;;;;5034377;28;20037;-69
2023/11/25 04:47:01;;;;;;;0.30;0.30;;;19.70;54.50;;;;;;5034748;28;20080;-69
2023/11/25 04:49:27;;;;;;;0.40;0.40;;;19.70;54.50;;;;;;5035150;28;20070;-69
2023/11/25 04:51:53;;;;;;;0.30;0.30;;;19.70;54.50;;;;;;5035780;28;20017;-69
2023/11/25 04:54:18;;;;;;;0.30;0.30;;;19.70;54.60;;;;;;5041007;28;20496;-69
2023/11/25 04:56:44;;;;;;;0.30;0.30;;;19.70;54.50;;;;;;5039058;28;20099;-69
2023/11/25 04:59:10;;;;;;;0.50;0.40;;;19.70;54.60;;;;;;5036354;28;20038;-69
2023/11/25 05:01:36;;;;;;;0.45;0.40;;;19.70;54.60;;;;;;5037553;28;20393;-68
2023/11/25 05:04:05;;;;;;;0.40;0.40;;;19.70;54.60;;;;;;5020359;28;20033;-69
2023/11/25 05:06:30;;;;;;;0.35;0.35;;;19.70;54.60;;;;;;5033820;28;20029;-69
2023/11/25 05:08:56;;;;;;;0.30;0.30;;;19.60;54.60;;;;;;5039426;28;20128;-69
2023/11/25 05:11:21;;;;;;;0.30;0.30;;;19.60;54.60;;;;;;5039189;28;20032;-68
2023/11/25 05:13:47;;;;;;;0.40;0.32;;;19.70;54.60;;;;;;5038243;28;20085;-68
2023/11/25 05:16:13;;;;;;;0.25;0.25;;;19.70;54.60;;;;;;5019008;28;20124;-68
2023/11/25 05:18:38;;;;;;;0.30;0.30;;;19.70;54.60;;;;;;5036625;28;20528;-68
2023/11/25 05:21:06;;;;;;;0.40;0.40;;;19.60;54.60;;;;;;5036955;28;20040;-68
2023/11/25 05:23:32;;;;;;;0.40;0.30;;;19.60;54.60;;;;;;5018302;28;20112;-68
2023/11/25 05:25:58;;;;;;;0.30;0.30;;;19.60;54.60;;;;;;5037737;28;20155;-68
2023/11/25 05:28:23;;;;;;;0.57;0.40;;;19.60;54.60;;;;;;5035630;28;20033;-69
2023/11/25 05:30:49;;;;;;;0.40;0.40;;;19.60;54.60;;;;;;5038592;28;20025;-68
2023/11/25 05:33:15;;;;;;;0.38;0.32;;;19.60;54.70;;;;;;5036992;28;20020;-69
2023/11/25 05:35:40;;;;;;;0.30;0.30;;;19.60;54.70;;;;;;5038102;28;20060;-69
2023/11/25 05:38:08;;;;;;;0.30;0.30;;;19.60;54.70;;;;;;5037999;28;20033;-69
2023/11/25 05:40:36;;;;;;;0.20;0.20;;;19.60;54.70;;;;;;5037497;28;20158;-66
2023/11/25 05:43:02;;;;;;;0.55;0.30;;;19.60;54.70;;;;;;5035517;28;20112;-66
2023/11/25 05:45:30;;;;;;;0.45;0.45;;;19.60;54.70;;;;;;5037330;28;20078;-67
2023/11/25 05:47:59;;;;;;;0.32;0.32;;;19.60;54.70;;;;;;5036699;27;20583;-66
2023/11/25 05:50:25;;;;;;;0.45;0.40;;;19.60;54.70;;;;;;5034993;28;20032;-67
2023/11/25 05:52:50;;;;;;;0.32;0.32;;;19.60;54.80;;;;;;5017553;28;20033;-66
2023/11/25 05:55:16;;;;;;;0.30;0.30;;;19.50;54.70;;;;;;5036226;28;20029;-66
2023/11/25 05:57:44;;;;;;;0.30;0.30;;;19.50;54.70;;;;;;5018978;28;20041;-66
2023/11/25 06:00:12;;;;;;;0.20;0.20;;;19.60;54.80;;;;;;5037458;28;20021;-67
2023/11/25 06:02:39;;;;;;;0.30;0.30;;;19.50;54.70;;;;;;5038791;28;20473;-67
2023/11/25 06:05:05;;;;;;;0.30;0.30;;;19.50;54.80;;;;;;5039346;28;20093;-66
2023/11/25 06:07:30;;;;;;;0.40;0.40;;;19.50;54.80;;;;;;5035477;28;20484;-66
2023/11/25 06:09:56;;;;;;;0.57;0.30;;;19.50;54.90;;;;;;5038707;28;20025;-66
2023/11/25 06:12:22;;;;;;;0.40;0.40;;;19.50;55.00;;;;;;5034190;28;20032;-66
2023/11/25 06:14:51;;;;;;;0.40;0.30;;;19.50;55.00;;;;;;5034363;28;20032;-66
2023/11/25 06:17:20;;;;;;;;;;;19.40;55.00;;;;;;5022588;28;20086;-66
2023/11/25 06:19:46;;;;;;;0.38;0.30;;;19.40;55.10;;;;;;5037415;28;20269;-67
2023/11/25 06:22:12;;;;;;;0.43;0.40;;;19.40;55.10;;;;;;5036526;28;20385;-72
2023/11/25 06:24:40;;;;;;;0.20;0.20;;;19.40;55.20;;;;;;5037107;28;20033;-71
2023/11/25 06:27:06;;;;;;;0.28;0.28;;;19.40;55.20;;;;;;5018621;28;20034;-72
2023/11/25 06:29:32;;;;;;;0.20;0.20;;;19.40;55.30;;;;;;5039152;28;20032;-72
2023/11/25 06:31:58;;;;;;;0.20;0.20;;;19.40;55.20;;;;;;5037911;28;20038;-71
2023/11/25 06:34:23;;;;;;;0.20;0.20;;;19.40;55.20;;;;;;5036736;28;20026;-71
2023/11/25 06:36:49;;;;;;;0.43;0.30;;;19.40;55.30;;;;;;5036704;28;20085;-72
2023/11/25 06:39:19;;;;;;;0.32;0.30;;;19.40;55.30;;;;;;5017690;28;20408;-72
2023/11/25 06:41:48;;;;;;;;;;;19.40;55.30;;;;;;5035938;28;20488;-72
2023/11/25 06:44:15;;;;;;;;;;;19.40;55.30;;;;;;5034828;28;19932;-72
2023/11/25 06:46:41;;;;;;;0.32;0.30;;;19.40;55.80;;;;;;5033943;28;20461;-72
2023/11/25 06:49:07;;;;;;;0.35;0.30;;;19.40;55.20;;;;;;5036937;28;20025;-72
2023/11/25 06:51:32;;;;;;;0.30;0.30;;;19.30;55.20;;;;;;5037169;28;20029;-70
2023/11/25 06:53:58;;;;;;;0.38;0.32;;;19.40;55.20;;;;;;5017539;28;20089;-70
2023/11/25 06:56:23;;;;;;;0.63;0.35;;;19.30;55.20;;;;;;5034718;28;20480;-70
2023/11/25 06:58:49;;;;;;;0.40;0.40;;;19.30;55.30;;;;;;5036272;28;20033;-70
2023/11/25 07:01:21;;;;;;;0.40;0.35;;;19.30;55.30;;;;;;5034652;28;20025;-70
2023/11/25 07:03:48;;;;;;;0.30;0.30;;;19.30;55.30;;;;;;5037100;28;20025;-70
2023/11/25 07:06:17;;;;;;;0.35;0.28;;;19.30;55.30;;;;;;5016459;28;20057;-70
2023/11/25 07:08:43;;;;;;;;;;;19.30;55.30;;;;;;5033833;28;20546;-70
2023/11/25 07:11:10;;;;;;;0.88;0.40;;;19.30;55.30;;;;;;5033249;28;19962;-70
2023/11/25 07:13:36;;;;;;;0.30;0.30;;;19.30;55.30;;;;;;5036798;28;20334;-70
2023/11/25 07:16:04;;;;;;;0.40;0.40;;;19.30;55.30;;;;;;5037636;28;20036;-71
2023/11/25 07:18:32;;;;;;;0.30;0.30;;;19.30;55.30;;;;;;5038673;28;20068;-70
2023/11/25 07:20:58;;;;;;;1.20;0.57;;;19.30;55.30;;;;;;5035532;28;20475;-71
2023/11/25 07:23:23;;;;;;;0.63;0.50;;;19.30;55.40;;;;;;5034285;28;20029;-70
2023/11/25 07:25:49;;;;;;;0.60;0.40;;;19.30;55.40;;;;;;5034166;28;20037;-70
2023/11/25 07:28:15;;;;;;;0.22;0.22;;;19.30;55.40;;;;;;5035799;28;20036;-69
2023/11/25 07:30:42;;;;;;;0.47;0.40;;;19.30;55.40;;;;;;5025995;28;20049;-67
2023/11/25 07:33:08;;;;;;;0.38;0.38;;;19.20;55.40;;;;;;5035571;28;20021;-67
2023/11/25 07:35:35;;;;;;;0.32;0.30;;;19.20;55.40;;;;;;5018104;28;20542;-68
2023/11/25 07:38:02;;;;;;;0.30;0.30;;;19.20;55.40;;;;;;5035854;28;20037;-67
2023/11/25 07:40:28;;;;;;;0.50;0.40;;;19.20;55.40;;;;;;5018607;28;20044;-68
2023/11/25 07:42:54;;;;;;;0.50;0.43;;;19.20;55.50;;;;;;5036174;28;20036;-69
2023/11/25 07:45:20;;;;;;;0.30;0.30;;;19.20;55.40;;;;;;5035480;28;20425;-68
2023/11/25 07:47:46;;;;;;;0.30;0.30;;;19.20;55.40;;;;;;5018052;28;20051;-68
2023/11/25 07:50:12;;;;;;;0.40;0.40;;;19.20;55.40;;;;;;5034530;28;20089;-67
2023/11/25 07:52:38;;;;;;;0.55;0.40;;;19.20;55.40;;;;;;5035330;28;20453;-67
2023/11/25 07:55:04;;;;;;;0.65;0.40;;;19.20;55.40;;;;;;5034965;28;20480;-68
2023/11/25 07:57:31;;;;;;;0.75;0.40;;;19.20;55.40;;;;;;5020337;28;20063;-67
2023/11/25 07:59:56;;;;;;;1.75;0.40;;;19.20;55.50;;;;;;5035929;28;20563;-67
2023/11/25 08:02:22;;;;;;;0.40;0.40;;;19.10;55.40;;;;;;5035813;28;20123;-72
2023/11/25 08:04:48;;;;;;;0.43;0.40;;;19.20;55.50;;;;;;5035415;28;20488;-72
2023/11/25 08:07:14;;;;;;;0.93;0.57;;;19.20;55.50;;;;;;5034880;28;20881;-72
2023/11/25 08:09:40;;;;;;;0.38;0.30;;;19.20;55.50;;;;;;5021519;28;20096;-72
2023/11/25 08:12:06;;;;;;;0.60;0.50;;;19.20;55.50;;;;;;5018245;28;20453;-71
2023/11/25 08:14:32;;;;;;;0.47;0.47;;;19.20;55.50;;;;;;5019631;28;20029;-72
2023/11/25 08:16:58;;;;;;;0.40;0.40;;;19.20;55.50;;;;;;5034902;28;20025;-71
2023/11/25 08:19:24;;;;;;;0.77;0.50;;;19.20;55.50;;;;;;5036249;28;20022;-71
2023/11/25 08:21:49;;;;;;;0.43;0.43;;;19.20;55.50;;;;;;5033088;28;20037;-72
2023/11/25 08:24:17;;;;;;;0.43;0.43;;;19.20;55.50;;;;;;5016925;28;20037;-71
2023/11/25 08:26:44;;;;;;;0.60;0.50;;;19.20;55.50;;;;;;5036202;28;20117;-72
2023/11/25 08:29:11;;;;;;;0.88;0.43;;;19.20;55.60;;;;;;5039263;28;20029;-72
2023/11/25 08:31:37;;;;;;;0.65;0.40;;;19.20;55.60;;;;;;5035622;28;20026;-72
2023/11/25 08:34:09;;;;;;;0.57;0.57;;;19.20;55.60;;;;;;5028471;28;20478;-72
2023/11/25 08:36:44;;;;;;;0.77;0.50;;;19.10;55.50;;;;;;5022337;27;20105;-72
2023/11/25 08:39:13;;;;;;;0.57;0.40;;;19.10;55.60;;;;;;5039272;28;20053;-72
2023/11/25 08:41:45;;;;;;;1.13;0.60;;;19.20;55.60;;;;;;5038815;28;20524;-66
2023/11/25 08:44:14;;;;;;;1.02;0.43;;;19.10;55.60;;;;;;5018405;28;20061;-65
2023/11/25 08:46:42;;;;;;;0.80;0.60;;;19.10;55.50;;;;;;5037564;28;20510;-67
2023/11/25 08:49:10;;;;;;;0.57;0.50;;;19.10;55.50;;;;;;5038425;28;20025;-66
2023/11/25 08:51:39;;;;;;;0.73;0.50;;;19.10;55.60;;;;;;5037355;28;20367;-65
2023/11/25 08:54:05;;;;;;;0.50;0.50;;;19.10;55.60;;;;;;5029268;28;20517;-66
2023/11/25 08:56:32;;;;;;;0.43;0.40;;;19.10;55.60;;;;;;5023094;28;20025;-67
2023/11/25 08:59:01;;;;;;;0.82;0.60;;;19.10;55.60;;;;;;5019375;28;20037;-68
2023/11/25 09:01:31;;;;;;;1.10;0.57;;;19.10;55.60;;;;;;5039080;28;20034;-69
2023/11/25 09:03:57;;;;;;;0.50;0.50;;;19.10;55.60;;;;;;5021926;28;20143;-66
2023/11/25 09:06:23;;;;;;;0.40;0.30;;;19.10;55.60;;;;;;5036893;28;20057;-67
2023/11/25 09:08:50;;;;;;;0.57;0.40;;;19.10;55.60;;;;;;5037410;28;20828;-66
2023/11/25 09:11:15;;;;;;;0.90;0.60;;;19.10;55.70;;;;;;5019945;28;20067;-68
2023/11/25 09:13:41;;;;;;;0.75;0.50;;;19.10;55.70;;;;;;5035596;28;20057;-67
2023/11/25 09:16:07;;;;;;;1.00;0.60;;;19.10;55.70;;;;;;5019651;28;20044;-67
2023/11/25 09:18:33;;;;;;;0.75;0.55;;;19.10;55.70;;;;;;5036304;28;20061;-67
2023/11/25 09:20:59;;;;;;;0.63;0.50;;;19.10;55.70;;;;;;5037852;28;20632;-68
2023/11/25 09:23:24;;;;;;;0.85;0.60;;;19.10;55.70;;;;;;5037582;27;20029;-68
2023/11/25 09:25:50;;;;;;;1.30;0.60;;;19.10;55.70;;;;;;5038569;28;20115;-68
2023/11/25 09:28:16;;;;;;;0.75;0.60;;;19.00;55.70;;;;;;5037740;28;20109;-68
2023/11/25 09:30:41;;;;;;;0.40;0.40;;;19.10;55.80;;;;;;5020578;28;20492;-69
2023/11/25 09:33:07;;;;;;;0.50;0.40;;;19.10;55.80;;;;;;5020268;28;20033;-70
2023/11/25 09:35:32;;;;;;;1.25;0.63;;;19.10;55.80;;;;;;5020592;28;20473;-72
2023/11/25 09:37:58;;;;;;;0.60;0.50;;;19.00;55.80;;;;;;5035622;28;20029;-71
2023/11/25 09:40:28;;;;;;;0.85;0.50;;;19.10;55.80;;;;;;5036937;28;20053;-72
2023/11/25 09:42:54;;;;;;;0.95;0.60;;;19.00;55.80;;;;;;5036662;28;20041;-71
2023/11/25 09:45:24;;;;;;;0.82;0.50;;;19.00;55.80;;;;;;5035649;27;20077;-71
2023/11/25 09:47:50;;;;;;;0.85;0.60;;;19.00;55.80;;;;;;5037429;28;20022;-71
2023/11/25 09:50:16;;;;;;;1.20;0.57;;;19.00;55.80;;;;;;5034958;28;20508;-73
2023/11/25 09:52:52;;;;;;;0.98;0.60;;;19.00;55.80;;;;;;5037026;28;20073;-74
2023/11/25 09:55:18;;;;;;;0.90;0.65;;;19.00;55.90;;;;;;5037546;28;20039;-73
2023/11/25 09:57:52;;;;;;;0.85;0.70;;;19.00;55.90;;;;;;5018957;28;20041;-74
2023/11/25 10:00:19;;;;;;;0.57;0.50;;;19.00;55.90;;;;;;5018581;28;20061;-74
2023/11/25 10:02:51;;;;;;;1.23;0.60;;;19.00;55.90;;;;;;5037009;28;20507;-73
2023/11/25 10:05:17;;;;;;;1.00;0.60;;;19.00;55.90;;;;;;5038737;28;20489;-72
2023/11/25 10:07:42;;;;;;;0.88;0.60;;;19.00;55.90;;;;;;5035846;28;20100;-73
2023/11/25 10:10:08;;;;;;;0.80;0.60;;;19.00;55.90;;;;;;5038571;28;20030;-74
2023/11/25 10:12:34;;;;;;;1.20;0.40;;;19.00;55.90;;;;;;5036607;28;20029;-74
2023/11/25 10:15:00;;;;;;;1.05;0.60;;;19.00;55.90;;;;;;5033919;28;20089;-74
2023/11/25 10:17:26;;;;;;;0.85;0.70;;;19.10;55.90;;;;;;5019818;28;20029;-72
2023/11/25 10:20:09;;;;;;;0.63;0.50;;;19.00;55.90;;;;;;5037732;28;20066;-73
2023/11/25 10:22:44;;;;;;;0.85;0.45;;;19.00;55.90;;;;;;5019244;28;20036;-73
2023/11/25 10:25:10;;;;;;;1.10;0.60;;;19.00;56.00;;;;;;5038599;28;20090;-73
2023/11/25 10:27:38;;;;;;;0.88;0.60;;;19.00;56.00;;;;;;5039396;28;20061;-74
2023/11/25 10:30:05;;;;;;;1.00;0.50;;;19.00;56.00;;;;;;5019485;28;20017;-74
2023/11/25 10:32:35;;;;;;;1.05;0.50;;;19.00;56.00;;;;;;5038203;28;20033;-75
2023/11/25 10:35:01;;;;;;;0.82;0.55;;;19.00;56.00;;;;;;5039044;28;20170;-75
2023/11/25 10:37:27;;;;;;;0.82;0.68;;;19.00;55.90;;;;;;5017141;28;20502;-75
2023/11/25 10:39:52;;;;;;;0.65;0.50;;;19.00;55.90;;;;;;5018747;28;20039;-76
2023/11/25 10:42:19;;;;;;;0.70;0.50;;;19.00;55.90;;;;;;5035584;28;20412;-75
2023/11/25 10:44:48;;;;;;;0.70;0.57;;;19.00;56.00;;;;;;5033436;28;20033;-76
2023/11/25 10:47:32;;;;;;;0.65;0.50;;;19.00;55.90;;;;;;5036689;28;20137;-76
2023/11/25 10:50:01;;;;;;;0.50;0.40;;;19.00;55.90;;;;;;5036242;28;20484;-76
2023/11/25 10:52:32;;;;;;;0.88;0.60;;;19.00;55.90;;;;;;5036331;28;20537;-76
2023/11/25 10:54:59;;;;;;;1.23;0.60;;;19.00;55.90;;;;;;5037089;28;20445;-75
2023/11/25 10:57:26;;;;;;;0.63;0.52;;;19.00;55.90;;;;;;5018501;28;20091;-75
2023/11/25 10:59:56;;;;;;;0.93;0.60;;;19.00;55.90;;;;;;5033854;28;20476;-72
2023/11/25 11:02:34;;;;;;;0.63;0.50;;;19.00;55.90;;;;;;5036468;28;20435;-76
2023/11/25 11:05:08;;;;;;;0.93;0.70;;;19.00;55.90;;;;;;5036255;28;20454;-75
2023/11/25 11:07:44;;;;;;;1.23;0.60;;;19.00;55.90;;;;;;5034683;28;20671;-76
2023/11/25 11:10:14;;;;;;;0.73;0.55;;;19.00;55.90;;;;;;5037876;28;20055;-76
2023/11/25 11:12:52;;;;;;;1.42;0.60;;;19.00;55.90;;;;;;5021163;28;20507;-75
2023/11/25 11:15:20;;;;;;;0.73;0.50;;;19.00;55.90;;;;;;5034552;28;20126;-76
2023/11/25 11:18:13;;;;;;;1.00;0.60;;;19.00;55.90;;;;;;5034965;28;20033;-75
2023/11/25 11:20:44;;;;;;;0.68;0.45;;;19.00;55.90;;;;;;5036839;28;20037;-76
2023/11/25 11:23:10;;;;;;;1.35;0.70;;;19.00;55.90;;;;;;5035610;28;20573;-74
2023/11/25 11:25:56;;;;;;;0.70;0.60;;;19.00;55.90;;;;;;5018340;28;20113;-73
2023/11/25 11:29:00;;;;;;;0.77;0.60;;;19.00;55.90;;;;;;5019168;28;20428;-76
2023/11/25 11:32:00;;;;;;;1.98;0.52;;;19.00;55.90;;;;;;5037025;28;20112;-74
2023/11/25 11:34:31;;;;;;;1.17;0.60;;;18.90;55.80;;;;;;5040037;28;20489;-73
2023/11/25 11:36:58;;;;;;;1.10;0.50;;;19.00;55.90;;;;;;5037490;28;20481;-73
2023/11/25 11:39:52;;;;;;;1.33;0.70;;;18.90;55.80;;;;;;5039092;28;20025;-73
2023/11/25 11:42:40;;;;;;;0.88;0.60;;;18.90;55.90;;;;;;5039428;28;20441;-73
2023/11/25 11:45:32;;;;;;;0.88;0.60;;;18.90;55.90;;;;;;5039028;28;20033;-72
2023/11/25 11:48:03;;;;;;;0.80;0.60;;;18.90;55.90;;;;;;5033194;28;20779;-72
2023/11/25 11:50:33;;;;;;;0.88;0.60;;;18.90;55.90;;;;;;5035486;28;20109;-73
2023/11/25 11:53:01;;;;;;;0.98;0.60;;;18.90;55.90;;;;;;5038602;28;20459;-75
2023/11/25 11:55:38;;;;;;;1.20;0.60;;;18.90;55.90;;;;;;5042028;28;20064;-74
2023/11/25 11:58:18;;;;;;;0.50;0.40;;;18.90;56.00;;;;;;5022480;28;20507;-73
2023/11/25 12:01:02;;;;;;;1.25;0.70;;;18.90;56.50;;;;;;5041394;28;20029;-72
2023/11/25 12:03:32;;;;;;;0.85;0.68;;;18.90;56.00;;;;;;5040201;28;20515;-72
2023/11/25 12:05:58;;;;;;;1.00;0.57;;;18.90;55.90;;;;;;5019362;28;20025;-73
2023/11/25 12:08:25;;;;;;;0.70;0.50;;;18.90;56.50;;;;;;5041826;28;20067;-77
2023/11/25 12:10:51;;;;;;;0.95;0.60;;;18.90;56.00;;;;;;5038188;28;20515;-67
2023/11/25 12:13:27;;;;;;;1.95;0.80;;;18.90;56.00;;;;;;5039552;28;20045;-67
2023/11/25 12:15:58;;;;;;;0.98;0.60;;;18.90;56.00;;;;;;5038435;28;20096;-67
2023/11/25 12:18:28;;;;;;;1.27;0.52;;;18.90;56.00;;;;;;5040035;28;20542;-67
2023/11/25 12:20:54;;;;;;;2.15;0.70;;;18.90;56.10;;;;;;5022331;28;20146;-67
2023/11/25 12:23:19;;;;;;;0.60;0.60;;;18.90;56.10;;;;;;5038891;28;20116;-67
2023/11/25 12:25:46;;;;;;;0.73;0.50;;;18.90;56.10;;;;;;5018436;28;20392;-67
2023/11/25 12:28:13;;;;;;;1.08;0.68;;;18.90;56.10;;;;;;5022064;28;20064;-68
2023/11/25 12:30:41;;;;;;;1.58;0.73;;;18.90;56.10;;;;;;5039738;28;20461;-67
2023/11/25 12:33:10;;;;;;;0.95;0.60;;;18.90;56.10;;;;;;5038672;28;20048;-68
2023/11/25 12:35:37;;;;;;;1.08;0.68;;;18.90;56.10;;;;;;5036866;28;20074;-67
2023/11/25 12:38:06;;;;;;;0.88;0.57;;;18.90;56.10;;;;;;5039548;28;20040;-67
2023/11/25 12:40:34;;;;;;;1.80;0.70;;;18.90;56.10;;;;;;5037684;28;20033;-67
2023/11/25 12:43:02;;;;;;;1.40;0.80;;;18.90;56.10;;;;;;5029367;27;20042;-74
2023/11/25 12:45:32;;;;;;;1.15;0.60;;;18.90;56.50;;;;;;5019245;28;20384;-74
2023/11/25 12:47:58;;;;;;;1.58;0.70;;;18.90;56.10;;;;;;5036070;28;20613;-73
2023/11/25 12:50:26;;;;;;;1.25;0.80;;;18.90;56.10;;;;;;5038185;28;20033;-73